sensor_id;sensor_type;location;lat;lon;timestamp;P1;durP1;ratioP1;P2;durP2;ratioP2
30133;SDS011;16946;49.984;10.672;2023-08-24T00:00:28;3.83;;;3.10;;
30133;SDS011;16946;49.984;10.672;2023-08-24T00:00:59;4.33;;;3.07;;
30133;SDS011;16946;49.984;10.672;2023-08-24T00:01:29;3.53;;;3.20;;
30133;SDS011;16946;49.984;10.672;2023-08-24T00:02:00;4.20;;;3.37;;
30133;SDS011;16946;49.984;10.672;2023-08-24T00:02:32;8.15;;;3.20;;
30133;SDS011;16946;49.984;10.672;2023-08-24T00:03:02;6.17;;;3.37;;
30133;SDS011;16946;49.984;10.672;2023-08-24T00:03:33;6.18;;;3.42;;
30133;SDS011;16946;49.984;10.672;2023-08-24T00:04:04;5.03;;;3.20;;
30133;SDS011;16946;49.984;10.672;2023-08-24T00:04:34;5.90;;;2.87;;
30133;SDS011;16946;49.984;10.672;2023-08-24T00:05:05;7.93;;;3.53;;
30133;SDS011;16946;49.984;10.672;2023-08-24T00:05:36;4.27;;;3.07;;
30133;SDS011;16946;49.984;10.672;2023-08-24T00:06:06;3.40;;;3.10;;
30133;SDS011;16946;49.984;10.672;2023-08-24T00:06:37;5.37;;;2.97;;
30133;SDS011;16946;49.984;10.672;2023-08-24T00:07:08;5.00;;;3.10;;
30133;SDS011;16946;49.984;10.672;2023-08-24T00:07:38;4.33;;;2.63;;
30133;SDS011;16946;49.984;10.672;2023-08-24T00:08:10;4.07;;;3.10;;
30133;SDS011;16946;49.984;10.672;2023-08-24T00:08:41;3.35;;;3.00;;
30133;SDS011;16946;49.984;10.672;2023-08-24T00:09:13;3.88;;;3.35;;
30133;SDS011;16946;49.984;10.672;2023-08-24T00:09:45;5.90;;;3.30;;
30133;SDS011;16946;49.984;10.672;2023-08-24T00:10:15;6.27;;;3.03;;
30133;SDS011;16946;49.984;10.672;2023-08-24T00:10:46;4.37;;;3.03;;
30133;SDS011;16946;49.984;10.672;2023-08-24T00:11:17;6.43;;;3.07;;
30133;SDS011;16946;49.984;10.672;2023-08-24T00:11:47;3.50;;;3.20;;
30133;SDS011;16946;49.984;10.672;2023-08-24T00:12:18;3.53;;;3.10;;
30133;SDS011;16946;49.984;10.672;2023-08-24T00:12:48;4.10;;;3.03;;
30133;SDS011;16946;49.984;10.672;2023-08-24T00:13:19;6.43;;;3.13;;
30133;SDS011;16946;49.984;10.672;2023-08-24T00:13:49;4.17;;;3.00;;
30133;SDS011;16946;49.984;10.672;2023-08-24T00:14:21;4.35;;;2.80;;
30133;SDS011;16946;49.984;10.672;2023-08-24T00:14:51;5.17;;;3.37;;
30133;SDS011;16946;49.984;10.672;2023-08-24T00:15:22;5.03;;;3.10;;
30133;SDS011;16946;49.984;10.672;2023-08-24T00:15:53;4.83;;;3.17;;
30133;SDS011;16946;49.984;10.672;2023-08-24T00:16:24;5.72;;;3.67;;
30133;SDS011;16946;49.984;10.672;2023-08-24T00:16:54;8.97;;;3.67;;
30133;SDS011;16946;49.984;10.672;2023-08-24T00:17:25;4.20;;;3.80;;
30133;SDS011;16946;49.984;10.672;2023-08-24T00:17:55;5.27;;;3.60;;
30133;SDS011;16946;49.984;10.672;2023-08-24T00:18:26;3.83;;;3.47;;
30133;SDS011;16946;49.984;10.672;2023-08-24T00:18:56;3.50;;;3.20;;
30133;SDS011;16946;49.984;10.672;2023-08-24T00:19:27;5.83;;;3.33;;
30133;SDS011;16946;49.984;10.672;2023-08-24T00:19:57;3.70;;;3.23;;
30133;SDS011;16946;49.984;10.672;2023-08-24T00:20:28;3.70;;;3.40;;
30133;SDS011;16946;49.984;10.672;2023-08-24T00:20:58;5.77;;;3.63;;
30133;SDS011;16946;49.984;10.672;2023-08-24T00:21:29;3.83;;;3.33;;
30133;SDS011;16946;49.984;10.672;2023-08-24T00:22:00;5.57;;;3.70;;
30133;SDS011;16946;49.984;10.672;2023-08-24T00:22:31;3.78;;;3.30;;
30133;SDS011;16946;49.984;10.672;2023-08-24T00:23:02;4.17;;;3.40;;
30133;SDS011;16946;49.984;10.672;2023-08-24T00:23:33;3.95;;;3.53;;
30133;SDS011;16946;49.984;10.672;2023-08-24T00:24:03;3.50;;;3.20;;
30133;SDS011;16946;49.984;10.672;2023-08-24T00:24:34;4.97;;;3.63;;
30133;SDS011;16946;49.984;10.672;2023-08-24T00:25:05;3.70;;;3.40;;
30133;SDS011;16946;49.984;10.672;2023-08-24T00:25:37;4.35;;;3.83;;
30133;SDS011;16946;49.984;10.672;2023-08-24T00:26:07;3.93;;;3.53;;
30133;SDS011;16946;49.984;10.672;2023-08-24T00:26:38;5.50;;;3.73;;
30133;SDS011;16946;49.984;10.672;2023-08-24T00:27:08;3.93;;;3.53;;
30133;SDS011;16946;49.984;10.672;2023-08-24T00:27:39;3.43;;;3.10;;
30133;SDS011;16946;49.984;10.672;2023-08-24T00:28:10;4.60;;;3.93;;
30133;SDS011;16946;49.984;10.672;2023-08-24T00:28:41;5.70;;;3.73;;
30133;SDS011;16946;49.984;10.672;2023-08-24T00:29:11;4.33;;;3.93;;
30133;SDS011;16946;49.984;10.672;2023-08-24T00:29:42;5.63;;;4.13;;
30133;SDS011;16946;49.984;10.672;2023-08-24T00:30:12;5.43;;;3.60;;
30133;SDS011;16946;49.984;10.672;2023-08-24T00:30:43;4.00;;;3.60;;
30133;SDS011;16946;49.984;10.672;2023-08-24T00:31:15;4.63;;;4.10;;
30133;SDS011;16946;49.984;10.672;2023-08-24T00:31:46;7.50;;;4.07;;
30133;SDS011;16946;49.984;10.672;2023-08-24T00:32:16;8.50;;;3.87;;
30133;SDS011;16946;49.984;10.672;2023-08-24T00:32:47;5.30;;;4.27;;
30133;SDS011;16946;49.984;10.672;2023-08-24T00:33:18;8.57;;;4.20;;
30133;SDS011;16946;49.984;10.672;2023-08-24T00:33:49;6.25;;;4.45;;
30133;SDS011;16946;49.984;10.672;2023-08-24T00:34:23;3.60;;;3.30;;
30133;SDS011;16946;49.984;10.672;2023-08-24T00:34:53;4.13;;;3.73;;
30133;SDS011;16946;49.984;10.672;2023-08-24T00:35:24;4.80;;;4.00;;
30133;SDS011;16946;49.984;10.672;2023-08-24T00:35:58;4.13;;;3.80;;
30133;SDS011;16946;49.984;10.672;2023-08-24T00:36:30;4.93;;;3.70;;
30133;SDS011;16946;49.984;10.672;2023-08-24T00:37:01;4.87;;;4.23;;
30133;SDS011;16946;49.984;10.672;2023-08-24T00:37:31;4.40;;;3.90;;
30133;SDS011;16946;49.984;10.672;2023-08-24T00:38:02;4.80;;;4.22;;
30133;SDS011;16946;49.984;10.672;2023-08-24T00:38:33;4.03;;;3.63;;
30133;SDS011;16946;49.984;10.672;2023-08-24T00:39:04;4.17;;;3.73;;
30133;SDS011;16946;49.984;10.672;2023-08-24T00:39:36;4.18;;;3.42;;
30133;SDS011;16946;49.984;10.672;2023-08-24T00:40:07;8.97;;;3.60;;
30133;SDS011;16946;49.984;10.672;2023-08-24T00:40:42;5.65;;;3.95;;
30133;SDS011;16946;49.984;10.672;2023-08-24T00:41:13;7.55;;;4.78;;
30133;SDS011;16946;49.984;10.672;2023-08-24T00:41:44;4.40;;;4.00;;
30133;SDS011;16946;49.984;10.672;2023-08-24T00:42:15;4.30;;;3.90;;
30133;SDS011;16946;49.984;10.672;2023-08-24T00:42:46;4.60;;;4.17;;
30133;SDS011;16946;49.984;10.672;2023-08-24T00:43:16;4.07;;;3.77;;
30133;SDS011;16946;49.984;10.672;2023-08-24T00:43:47;4.85;;;4.18;;
30133;SDS011;16946;49.984;10.672;2023-08-24T00:44:20;4.50;;;4.03;;
30133;SDS011;16946;49.984;10.672;2023-08-24T00:44:50;6.33;;;4.30;;
30133;SDS011;16946;49.984;10.672;2023-08-24T00:45:21;4.67;;;4.13;;
30133;SDS011;16946;49.984;10.672;2023-08-24T00:45:52;5.07;;;4.28;;
30133;SDS011;16946;49.984;10.672;2023-08-24T00:46:25;9.32;;;5.22;;
30133;SDS011;16946;49.984;10.672;2023-08-24T00:46:57;5.40;;;4.88;;
30133;SDS011;16946;49.984;10.672;2023-08-24T00:47:29;7.20;;;4.45;;
30133;SDS011;16946;49.984;10.672;2023-08-24T00:47:59;7.20;;;4.87;;
30133;SDS011;16946;49.984;10.672;2023-08-24T00:48:31;6.18;;;4.55;;
30133;SDS011;16946;49.984;10.672;2023-08-24T00:49:02;4.60;;;4.20;;
30133;SDS011;16946;49.984;10.672;2023-08-24T00:49:33;7.87;;;3.40;;
30133;SDS011;16946;49.984;10.672;2023-08-24T00:50:03;7.77;;;4.00;;
30133;SDS011;16946;49.984;10.672;2023-08-24T00:50:35;4.60;;;4.13;;
30133;SDS011;16946;49.984;10.672;2023-08-24T00:51:05;4.77;;;3.50;;
30133;SDS011;16946;49.984;10.672;2023-08-24T00:51:36;5.37;;;4.10;;
30133;SDS011;16946;49.984;10.672;2023-08-24T00:52:07;5.07;;;4.40;;
30133;SDS011;16946;49.984;10.672;2023-08-24T00:52:40;4.28;;;3.88;;
30133;SDS011;16946;49.984;10.672;2023-08-24T00:53:11;8.45;;;4.20;;
30133;SDS011;16946;49.984;10.672;2023-08-24T00:53:42;5.10;;;4.50;;
30133;SDS011;16946;49.984;10.672;2023-08-24T00:54:13;11.27;;;5.10;;
30133;SDS011;16946;49.984;10.672;2023-08-24T00:54:43;6.27;;;4.77;;
30133;SDS011;16946;49.984;10.672;2023-08-24T00:55:15;6.22;;;4.63;;
30133;SDS011;16946;49.984;10.672;2023-08-24T00:55:46;8.07;;;4.60;;
30133;SDS011;16946;49.984;10.672;2023-08-24T00:56:17;7.77;;;4.83;;
30133;SDS011;16946;49.984;10.672;2023-08-24T00:56:54;7.15;;;4.25;;
30133;SDS011;16946;49.984;10.672;2023-08-24T00:57:26;6.27;;;4.27;;
30133;SDS011;16946;49.984;10.672;2023-08-24T00:57:57;6.00;;;5.40;;
30133;SDS011;16946;49.984;10.672;2023-08-24T00:58:29;5.53;;;4.55;;
30133;SDS011;16946;49.984;10.672;2023-08-24T00:59:01;6.03;;;4.20;;
30133;SDS011;16946;49.984;10.672;2023-08-24T00:59:32;7.63;;;4.43;;
30133;SDS011;16946;49.984;10.672;2023-08-24T01:00:04;6.10;;;4.20;;
30133;SDS011;16946;49.984;10.672;2023-08-24T01:00:36;5.43;;;4.50;;
30133;SDS011;16946;49.984;10.672;2023-08-24T01:01:07;5.38;;;4.20;;
30133;SDS011;16946;49.984;10.672;2023-08-24T01:01:39;3.90;;;3.50;;
30133;SDS011;16946;49.984;10.672;2023-08-24T01:02:11;4.72;;;4.00;;
30133;SDS011;16946;49.984;10.672;2023-08-24T01:02:42;4.23;;;3.83;;
30133;SDS011;16946;49.984;10.672;2023-08-24T01:03:12;6.23;;;4.10;;
30133;SDS011;16946;49.984;10.672;2023-08-24T01:03:43;4.47;;;4.00;;
30133;SDS011;16946;49.984;10.672;2023-08-24T01:04:14;6.23;;;4.10;;
30133;SDS011;16946;49.984;10.672;2023-08-24T01:04:45;5.20;;;4.17;;
30133;SDS011;16946;49.984;10.672;2023-08-24T01:05:17;4.75;;;4.25;;
30133;SDS011;16946;49.984;10.672;2023-08-24T01:05:47;4.70;;;4.23;;
30133;SDS011;16946;49.984;10.672;2023-08-24T01:06:18;6.17;;;4.40;;
30133;SDS011;16946;49.984;10.672;2023-08-24T01:06:49;8.40;;;3.93;;
30133;SDS011;16946;49.984;10.672;2023-08-24T01:07:19;4.20;;;3.80;;
30133;SDS011;16946;49.984;10.672;2023-08-24T01:07:50;4.23;;;3.53;;
30133;SDS011;16946;49.984;10.672;2023-08-24T01:08:21;4.47;;;3.50;;
30133;SDS011;16946;49.984;10.672;2023-08-24T01:08:52;6.50;;;4.03;;
30133;SDS011;16946;49.984;10.672;2023-08-24T01:09:24;4.55;;;4.10;;
30133;SDS011;16946;49.984;10.672;2023-08-24T01:09:54;3.97;;;3.67;;
30133;SDS011;16946;49.984;10.672;2023-08-24T01:10:25;4.57;;;4.17;;
30133;SDS011;16946;49.984;10.672;2023-08-24T01:11:12;5.32;;;3.95;;
30133;SDS011;16946;49.984;10.672;2023-08-24T01:12:11;6.50;;;3.67;;
30133;SDS011;16946;49.984;10.672;2023-08-24T01:12:57;4.78;;;4.28;;
30133;SDS011;16946;49.984;10.672;2023-08-24T01:14:46;6.03;;;4.20;;
30133;SDS011;16946;49.984;10.672;2023-08-24T01:16:34;4.70;;;3.95;;
30133;SDS011;16946;49.984;10.672;2023-08-24T01:17:11;6.18;;;4.75;;
30133;SDS011;16946;49.984;10.672;2023-08-24T01:17:44;6.15;;;4.07;;
30133;SDS011;16946;49.984;10.672;2023-08-24T01:18:17;4.35;;;4.00;;
30133;SDS011;16946;49.984;10.672;2023-08-24T01:18:50;8.52;;;4.25;;
30133;SDS011;16946;49.984;10.672;2023-08-24T01:19:33;6.15;;;4.40;;
30133;SDS011;16946;49.984;10.672;2023-08-24T01:20:07;8.60;;;4.28;;
30133;SDS011;16946;49.984;10.672;2023-08-24T01:20:40;4.97;;;4.35;;
30133;SDS011;16946;49.984;10.672;2023-08-24T01:21:12;4.63;;;4.22;;
30133;SDS011;16946;49.984;10.672;2023-08-24T01:21:45;6.38;;;4.60;;
30133;SDS011;16946;49.984;10.672;2023-08-24T01:23:57;5.38;;;4.88;;
30133;SDS011;16946;49.984;10.672;2023-08-24T01:24:45;6.80;;;4.70;;
30133;SDS011;16946;49.984;10.672;2023-08-24T01:26:21;7.55;;;5.07;;
30133;SDS011;16946;49.984;10.672;2023-08-24T01:26:52;5.38;;;4.50;;
30133;SDS011;16946;49.984;10.672;2023-08-24T01:27:25;5.10;;;3.83;;
30133;SDS011;16946;49.984;10.672;2023-08-24T01:27:57;5.03;;;4.20;;
30133;SDS011;16946;49.984;10.672;2023-08-24T01:28:29;5.72;;;4.43;;
30133;SDS011;16946;49.984;10.672;2023-08-24T01:29:01;6.55;;;4.20;;
30133;SDS011;16946;49.984;10.672;2023-08-24T01:29:34;4.47;;;3.90;;
30133;SDS011;16946;49.984;10.672;2023-08-24T01:30:04;5.43;;;4.40;;
30133;SDS011;16946;49.984;10.672;2023-08-24T01:30:36;5.55;;;4.75;;
30133;SDS011;16946;49.984;10.672;2023-08-24T01:31:07;4.82;;;4.43;;
30133;SDS011;16946;49.984;10.672;2023-08-24T01:31:38;6.95;;;3.75;;
30133;SDS011;16946;49.984;10.672;2023-08-24T01:32:09;6.17;;;3.93;;
30133;SDS011;16946;49.984;10.672;2023-08-24T01:32:41;4.38;;;3.97;;
30133;SDS011;16946;49.984;10.672;2023-08-24T01:33:13;4.63;;;4.07;;
30133;SDS011;16946;49.984;10.672;2023-08-24T01:33:44;4.20;;;3.80;;
30133;SDS011;16946;49.984;10.672;2023-08-24T01:34:15;4.60;;;4.20;;
30133;SDS011;16946;49.984;10.672;2023-08-24T01:34:45;6.67;;;4.27;;
30133;SDS011;16946;49.984;10.672;2023-08-24T01:35:16;5.27;;;4.20;;
30133;SDS011;16946;49.984;10.672;2023-08-24T01:35:46;4.33;;;3.97;;
30133;SDS011;16946;49.984;10.672;2023-08-24T01:36:17;5.20;;;4.60;;
30133;SDS011;16946;49.984;10.672;2023-08-24T01:36:48;4.90;;;4.40;;
30133;SDS011;16946;49.984;10.672;2023-08-24T01:37:18;4.30;;;3.90;;
30133;SDS011;16946;49.984;10.672;2023-08-24T01:37:49;6.63;;;4.23;;
30133;SDS011;16946;49.984;10.672;2023-08-24T01:38:20;6.83;;;4.40;;
30133;SDS011;16946;49.984;10.672;2023-08-24T01:39:02;4.50;;;4.10;;
30133;SDS011;16946;49.984;10.672;2023-08-24T01:39:46;6.05;;;4.40;;
30133;SDS011;16946;49.984;10.672;2023-08-24T01:40:41;5.95;;;4.57;;
30133;SDS011;16946;49.984;10.672;2023-08-24T01:41:22;6.13;;;4.80;;
30133;SDS011;16946;49.984;10.672;2023-08-24T01:41:58;5.07;;;4.68;;
30133;SDS011;16946;49.984;10.672;2023-08-24T01:42:35;4.90;;;4.40;;
30133;SDS011;16946;49.984;10.672;2023-08-24T01:43:11;5.57;;;4.97;;
30133;SDS011;16946;49.984;10.672;2023-08-24T01:43:45;5.85;;;5.25;;
30133;SDS011;16946;49.984;10.672;2023-08-24T01:44:20;7.07;;;5.32;;
30133;SDS011;16946;49.984;10.672;2023-08-24T01:44:52;6.68;;;5.03;;
30133;SDS011;16946;49.984;10.672;2023-08-24T01:45:27;6.13;;;5.30;;
30133;SDS011;16946;49.984;10.672;2023-08-24T01:46:00;7.88;;;4.80;;
30133;SDS011;16946;49.984;10.672;2023-08-24T01:46:34;10.13;;;4.70;;
30133;SDS011;16946;49.984;10.672;2023-08-24T01:47:06;4.93;;;4.53;;
30133;SDS011;16946;49.984;10.672;2023-08-24T01:47:41;6.03;;;4.53;;
30133;SDS011;16946;49.984;10.672;2023-08-24T01:48:12;5.30;;;4.75;;
30133;SDS011;16946;49.984;10.672;2023-08-24T01:48:44;6.32;;;4.60;;
30133;SDS011;16946;49.984;10.672;2023-08-24T01:49:17;5.25;;;4.38;;
30133;SDS011;16946;49.984;10.672;2023-08-24T01:49:48;5.07;;;4.03;;
30133;SDS011;16946;49.984;10.672;2023-08-24T01:50:19;7.77;;;5.07;;
30133;SDS011;16946;49.984;10.672;2023-08-24T01:50:49;8.20;;;5.13;;
30133;SDS011;16946;49.984;10.672;2023-08-24T01:51:20;6.20;;;4.50;;
30133;SDS011;16946;49.984;10.672;2023-08-24T01:51:54;8.68;;;5.22;;
30133;SDS011;16946;49.984;10.672;2023-08-24T01:52:25;4.93;;;4.53;;
30133;SDS011;16946;49.984;10.672;2023-08-24T01:52:57;4.97;;;4.57;;
30133;SDS011;16946;49.984;10.672;2023-08-24T01:53:30;5.30;;;4.90;;
30133;SDS011;16946;49.984;10.672;2023-08-24T01:54:01;5.40;;;4.95;;
30133;SDS011;16946;49.984;10.672;2023-08-24T01:54:32;10.40;;;5.47;;
30133;SDS011;16946;49.984;10.672;2023-08-24T01:55:02;8.80;;;5.70;;
30133;SDS011;16946;49.984;10.672;2023-08-24T01:55:33;6.50;;;5.83;;
30133;SDS011;16946;49.984;10.672;2023-08-24T01:56:10;5.67;;;5.13;;
30133;SDS011;16946;49.984;10.672;2023-08-24T01:56:41;8.20;;;5.25;;
30133;SDS011;16946;49.984;10.672;2023-08-24T01:57:12;5.43;;;4.93;;
30133;SDS011;16946;49.984;10.672;2023-08-24T01:57:42;5.50;;;5.00;;
30133;SDS011;16946;49.984;10.672;2023-08-24T01:58:13;6.17;;;5.17;;
30133;SDS011;16946;49.984;10.672;2023-08-24T01:58:43;6.27;;;4.20;;
30133;SDS011;16946;49.984;10.672;2023-08-24T01:59:14;5.00;;;4.60;;
30133;SDS011;16946;49.984;10.672;2023-08-24T01:59:44;5.70;;;5.00;;
30133;SDS011;16946;49.984;10.672;2023-08-24T02:00:15;6.07;;;4.50;;
30133;SDS011;16946;49.984;10.672;2023-08-24T02:00:46;5.60;;;4.43;;
30133;SDS011;16946;49.984;10.672;2023-08-24T02:01:16;6.10;;;5.20;;
30133;SDS011;16946;49.984;10.672;2023-08-24T02:01:47;5.07;;;4.60;;
30133;SDS011;16946;49.984;10.672;2023-08-24T02:02:17;5.83;;;4.63;;
30133;SDS011;16946;49.984;10.672;2023-08-24T02:02:48;4.13;;;3.77;;
30133;SDS011;16946;49.984;10.672;2023-08-24T02:03:18;5.10;;;3.90;;
30133;SDS011;16946;49.984;10.672;2023-08-24T02:03:49;7.63;;;4.33;;
30133;SDS011;16946;49.984;10.672;2023-08-24T02:04:19;7.73;;;5.17;;
30133;SDS011;16946;49.984;10.672;2023-08-24T02:04:50;4.57;;;3.90;;
30133;SDS011;16946;49.984;10.672;2023-08-24T02:05:21;5.30;;;4.77;;
30133;SDS011;16946;49.984;10.672;2023-08-24T02:05:51;5.87;;;5.37;;
30133;SDS011;16946;49.984;10.672;2023-08-24T02:06:22;6.13;;;5.07;;
30133;SDS011;16946;49.984;10.672;2023-08-24T02:06:53;5.93;;;5.37;;
30133;SDS011;16946;49.984;10.672;2023-08-24T02:07:23;5.30;;;4.80;;
30133;SDS011;16946;49.984;10.672;2023-08-24T02:07:54;6.43;;;5.37;;
30133;SDS011;16946;49.984;10.672;2023-08-24T02:08:25;7.83;;;5.53;;
30133;SDS011;16946;49.984;10.672;2023-08-24T02:08:55;5.63;;;5.13;;
30133;SDS011;16946;49.984;10.672;2023-08-24T02:09:26;5.40;;;4.90;;
30133;SDS011;16946;49.984;10.672;2023-08-24T02:09:56;5.30;;;4.80;;
30133;SDS011;16946;49.984;10.672;2023-08-24T02:10:27;5.30;;;4.80;;
30133;SDS011;16946;49.984;10.672;2023-08-24T02:10:58;7.50;;;5.20;;
30133;SDS011;16946;49.984;10.672;2023-08-24T02:11:28;4.87;;;4.37;;
30133;SDS011;16946;49.984;10.672;2023-08-24T02:11:59;5.00;;;4.60;;
30133;SDS011;16946;49.984;10.672;2023-08-24T02:12:29;7.47;;;5.47;;
30133;SDS011;16946;49.984;10.672;2023-08-24T02:13:00;6.17;;;5.03;;
30133;SDS011;16946;49.984;10.672;2023-08-24T02:13:30;6.17;;;5.57;;
30133;SDS011;16946;49.984;10.672;2023-08-24T02:14:01;5.60;;;5.10;;
30133;SDS011;16946;49.984;10.672;2023-08-24T02:14:32;5.87;;;5.13;;
30133;SDS011;16946;49.984;10.672;2023-08-24T02:15:03;5.50;;;5.00;;
30133;SDS011;16946;49.984;10.672;2023-08-24T02:15:34;4.88;;;4.38;;
30133;SDS011;16946;49.984;10.672;2023-08-24T02:16:05;4.83;;;3.60;;
30133;SDS011;16946;49.984;10.672;2023-08-24T02:16:38;6.20;;;4.18;;
30133;SDS011;16946;49.984;10.672;2023-08-24T02:17:09;4.53;;;4.13;;
30133;SDS011;16946;49.984;10.672;2023-08-24T02:17:40;4.63;;;4.23;;
30133;SDS011;16946;49.984;10.672;2023-08-24T02:18:10;5.23;;;4.33;;
30133;SDS011;16946;49.984;10.672;2023-08-24T02:18:41;5.53;;;4.93;;
30133;SDS011;16946;49.984;10.672;2023-08-24T02:19:12;4.73;;;4.33;;
30133;SDS011;16946;49.984;10.672;2023-08-24T02:19:42;8.23;;;4.47;;
30133;SDS011;16946;49.984;10.672;2023-08-24T02:20:13;5.10;;;4.20;;
30133;SDS011;16946;49.984;10.672;2023-08-24T02:20:44;5.00;;;4.60;;
30133;SDS011;16946;49.984;10.672;2023-08-24T02:21:14;5.07;;;4.20;;
30133;SDS011;16946;49.984;10.672;2023-08-24T02:21:46;5.32;;;4.85;;
30133;SDS011;16946;49.984;10.672;2023-08-24T02:22:16;5.70;;;4.77;;
30133;SDS011;16946;49.984;10.672;2023-08-24T02:22:47;4.90;;;4.33;;
30133;SDS011;16946;49.984;10.672;2023-08-24T02:23:18;5.40;;;4.87;;
30133;SDS011;16946;49.984;10.672;2023-08-24T02:23:48;7.43;;;5.03;;
30133;SDS011;16946;49.984;10.672;2023-08-24T02:24:19;5.80;;;4.87;;
30133;SDS011;16946;49.984;10.672;2023-08-24T02:24:49;5.47;;;5.07;;
30133;SDS011;16946;49.984;10.672;2023-08-24T02:25:20;7.60;;;5.18;;
30133;SDS011;16946;49.984;10.672;2023-08-24T02:25:51;6.13;;;5.00;;
30133;SDS011;16946;49.984;10.672;2023-08-24T02:26:21;6.30;;;5.50;;
30133;SDS011;16946;49.984;10.672;2023-08-24T02:26:52;5.73;;;5.23;;
30133;SDS011;16946;49.984;10.672;2023-08-24T02:27:23;5.03;;;4.53;;
30133;SDS011;16946;49.984;10.672;2023-08-24T02:27:53;5.87;;;5.37;;
30133;SDS011;16946;49.984;10.672;2023-08-24T02:28:24;5.23;;;4.73;;
30133;SDS011;16946;49.984;10.672;2023-08-24T02:28:55;4.97;;;4.57;;
30133;SDS011;16946;49.984;10.672;2023-08-24T02:29:27;5.30;;;4.90;;
30133;SDS011;16946;49.984;10.672;2023-08-24T02:29:57;5.53;;;4.93;;
30133;SDS011;16946;49.984;10.672;2023-08-24T02:30:28;8.13;;;4.50;;
30133;SDS011;16946;49.984;10.672;2023-08-24T02:31:02;5.53;;;5.03;;
30133;SDS011;16946;49.984;10.672;2023-08-24T02:31:33;6.80;;;4.88;;
30133;SDS011;16946;49.984;10.672;2023-08-24T02:32:04;5.37;;;4.67;;
30133;SDS011;16946;49.984;10.672;2023-08-24T02:32:35;5.57;;;4.53;;
30133;SDS011;16946;49.984;10.672;2023-08-24T02:33:05;5.47;;;4.97;;
30133;SDS011;16946;49.984;10.672;2023-08-24T02:33:36;5.10;;;4.60;;
30133;SDS011;16946;49.984;10.672;2023-08-24T02:34:06;5.20;;;4.73;;
30133;SDS011;16946;49.984;10.672;2023-08-24T02:34:37;4.50;;;4.10;;
30133;SDS011;16946;49.984;10.672;2023-08-24T02:35:08;8.48;;;4.57;;
30133;SDS011;16946;49.984;10.672;2023-08-24T02:35:39;4.40;;;4.00;;
30133;SDS011;16946;49.984;10.672;2023-08-24T02:36:10;4.57;;;4.07;;
30133;SDS011;16946;49.984;10.672;2023-08-24T02:36:40;7.13;;;4.33;;
30133;SDS011;16946;49.984;10.672;2023-08-24T02:37:11;8.03;;;5.07;;
30133;SDS011;16946;49.984;10.672;2023-08-24T02:37:41;8.00;;;5.33;;
30133;SDS011;16946;49.984;10.672;2023-08-24T02:38:12;7.93;;;4.47;;
30133;SDS011;16946;49.984;10.672;2023-08-24T02:38:42;8.40;;;5.03;;
30133;SDS011;16946;49.984;10.672;2023-08-24T02:39:13;6.47;;;5.60;;
30133;SDS011;16946;49.984;10.672;2023-08-24T02:39:43;5.97;;;5.07;;
30133;SDS011;16946;49.984;10.672;2023-08-24T02:40:14;8.73;;;5.00;;
30133;SDS011;16946;49.984;10.672;2023-08-24T02:40:44;6.00;;;4.77;;
30133;SDS011;16946;49.984;10.672;2023-08-24T02:41:15;11.17;;;4.83;;
30133;SDS011;16946;49.984;10.672;2023-08-24T02:41:46;5.87;;;5.20;;
30133;SDS011;16946;49.984;10.672;2023-08-24T02:42:17;5.33;;;4.83;;
30133;SDS011;16946;49.984;10.672;2023-08-24T02:42:47;6.87;;;4.93;;
30133;SDS011;16946;49.984;10.672;2023-08-24T02:43:18;5.87;;;4.77;;
30133;SDS011;16946;49.984;10.672;2023-08-24T02:43:48;5.30;;;4.80;;
30133;SDS011;16946;49.984;10.672;2023-08-24T02:44:19;5.27;;;4.10;;
30133;SDS011;16946;49.984;10.672;2023-08-24T02:44:49;6.30;;;4.67;;
30133;SDS011;16946;49.984;10.672;2023-08-24T02:45:20;7.40;;;4.20;;
30133;SDS011;16946;49.984;10.672;2023-08-24T02:45:50;5.43;;;4.70;;
30133;SDS011;16946;49.984;10.672;2023-08-24T02:46:23;7.47;;;4.88;;
30133;SDS011;16946;49.984;10.672;2023-08-24T02:46:53;5.60;;;4.83;;
30133;SDS011;16946;49.984;10.672;2023-08-24T02:47:24;5.33;;;4.80;;
30133;SDS011;16946;49.984;10.672;2023-08-24T02:47:55;7.00;;;4.63;;
30133;SDS011;16946;49.984;10.672;2023-08-24T02:48:25;6.07;;;5.13;;
30133;SDS011;16946;49.984;10.672;2023-08-24T02:48:56;6.23;;;5.07;;
30133;SDS011;16946;49.984;10.672;2023-08-24T02:49:26;5.50;;;4.97;;
30133;SDS011;16946;49.984;10.672;2023-08-24T02:49:57;6.60;;;5.40;;
30133;SDS011;16946;49.984;10.672;2023-08-24T02:50:27;5.00;;;4.50;;
30133;SDS011;16946;49.984;10.672;2023-08-24T02:50:58;5.43;;;4.93;;
30133;SDS011;16946;49.984;10.672;2023-08-24T02:51:29;6.25;;;5.15;;
30133;SDS011;16946;49.984;10.672;2023-08-24T02:52:01;5.20;;;4.70;;
30133;SDS011;16946;49.984;10.672;2023-08-24T02:52:32;4.80;;;4.40;;
30133;SDS011;16946;49.984;10.672;2023-08-24T02:53:02;7.67;;;4.47;;
30133;SDS011;16946;49.984;10.672;2023-08-24T02:53:33;5.20;;;4.70;;
30133;SDS011;16946;49.984;10.672;2023-08-24T02:54:04;12.17;;;4.77;;
30133;SDS011;16946;49.984;10.672;2023-08-24T02:54:34;4.95;;;4.45;;
30133;SDS011;16946;49.984;10.672;2023-08-24T02:55:05;5.20;;;4.70;;
30133;SDS011;16946;49.984;10.672;2023-08-24T02:55:36;6.63;;;4.45;;
30133;SDS011;16946;49.984;10.672;2023-08-24T02:56:07;5.83;;;4.27;;
30133;SDS011;16946;49.984;10.672;2023-08-24T02:56:37;6.17;;;4.43;;
30133;SDS011;16946;49.984;10.672;2023-08-24T02:57:08;7.53;;;5.13;;
30133;SDS011;16946;49.984;10.672;2023-08-24T02:57:38;5.23;;;4.40;;
30133;SDS011;16946;49.984;10.672;2023-08-24T02:58:09;5.70;;;4.53;;
30133;SDS011;16946;49.984;10.672;2023-08-24T02:58:39;5.03;;;4.53;;
30133;SDS011;16946;49.984;10.672;2023-08-24T02:59:10;5.60;;;5.00;;
30133;SDS011;16946;49.984;10.672;2023-08-24T02:59:41;5.53;;;4.67;;
30133;SDS011;16946;49.984;10.672;2023-08-24T03:00:13;6.25;;;4.90;;
30133;SDS011;16946;49.984;10.672;2023-08-24T03:00:44;4.63;;;4.23;;
30133;SDS011;16946;49.984;10.672;2023-08-24T03:01:14;7.93;;;5.10;;
30133;SDS011;16946;49.984;10.672;2023-08-24T03:01:45;5.37;;;4.80;;
30133;SDS011;16946;49.984;10.672;2023-08-24T03:02:15;5.73;;;4.83;;
30133;SDS011;16946;49.984;10.672;2023-08-24T03:02:46;6.90;;;5.17;;
30133;SDS011;16946;49.984;10.672;2023-08-24T03:03:17;6.10;;;5.13;;
30133;SDS011;16946;49.984;10.672;2023-08-24T03:03:47;6.33;;;5.23;;
30133;SDS011;16946;49.984;10.672;2023-08-24T03:04:18;6.70;;;6.10;;
30133;SDS011;16946;49.984;10.672;2023-08-24T03:04:49;6.75;;;4.93;;
30133;SDS011;16946;49.984;10.672;2023-08-24T03:05:20;5.70;;;5.20;;
30133;SDS011;16946;49.984;10.672;2023-08-24T03:05:54;5.37;;;4.87;;
30133;SDS011;16946;49.984;10.672;2023-08-24T03:06:25;5.30;;;4.80;;
30133;SDS011;16946;49.984;10.672;2023-08-24T03:06:55;6.63;;;5.57;;
30133;SDS011;16946;49.984;10.672;2023-08-24T03:07:26;6.00;;;5.40;;
30133;SDS011;16946;49.984;10.672;2023-08-24T03:07:57;6.60;;;5.93;;
30133;SDS011;16946;49.984;10.672;2023-08-24T03:08:29;5.82;;;5.32;;
30133;SDS011;16946;49.984;10.672;2023-08-24T03:09:01;6.05;;;5.50;;
30133;SDS011;16946;49.984;10.672;2023-08-24T03:09:34;6.00;;;5.40;;
30133;SDS011;16946;49.984;10.672;2023-08-24T03:10:05;6.38;;;5.45;;
30133;SDS011;16946;49.984;10.672;2023-08-24T03:10:36;6.70;;;5.20;;
30133;SDS011;16946;49.984;10.672;2023-08-24T03:11:06;6.67;;;6.07;;
30133;SDS011;16946;49.984;10.672;2023-08-24T03:11:37;7.67;;;6.20;;
30133;SDS011;16946;49.984;10.672;2023-08-24T03:12:07;7.37;;;5.47;;
30133;SDS011;16946;49.984;10.672;2023-08-24T03:12:38;10.70;;;5.83;;